sensor_id;sensor_type;location;lat;lon;timestamp;temperature;humidity
55121;DHT22;41019;48.512;9.036;2022-12-11T00:01:32;0.60;91.90
55121;DHT22;41019;48.512;9.036;2022-12-11T00:03:57;0.50;91.40
55121;DHT22;41019;48.512;9.036;2022-12-11T00:06:23;0.40;91.90
55121;DHT22;41019;48.512;9.036;2022-12-11T00:08:53;0.40;92.30
55121;DHT22;41019;48.512;9.036;2022-12-11T00:11:21;0.30;91.90
55121;DHT22;41019;48.512;9.036;2022-12-11T00:13:47;0.30;91.80
55121;DHT22;41019;48.512;9.036;2022-12-11T00:16:14;0.20;92.00
55121;DHT22;41019;48.512;9.036;2022-12-11T00:18:40;0.20;92.00
55121;DHT22;41019;48.512;9.036;2022-12-11T00:21:09;0.20;92.00
55121;DHT22;41019;48.512;9.036;2022-12-11T00:23:36;0.10;92.30
55121;DHT22;41019;48.512;9.036;2022-12-11T00:26:13;0.10;92.50
55121;DHT22;41019;48.512;9.036;2022-12-11T00:28:40;0.00;92.50
55121;DHT22;41019;48.512;9.036;2022-12-11T00:31:10;0.00;92.70
55121;DHT22;41019;48.512;9.036;2022-12-11T00:33:41;0.00;93.00
55121;DHT22;41019;48.512;9.036;2022-12-11T00:36:16;-0.10;93.00
55121;DHT22;41019;48.512;9.036;2022-12-11T00:38:42;-0.10;93.00
55121;DHT22;41019;48.512;9.036;2022-12-11T00:41:10;-0.20;92.70
55121;DHT22;41019;48.512;9.036;2022-12-11T00:43:36;-0.20;92.90
55121;DHT22;41019;48.512;9.036;2022-12-11T00:46:02;-0.30;92.70
55121;DHT22;41019;48.512;9.036;2022-12-11T00:48:29;-0.30;93.10
55121;DHT22;41019;48.512;9.036;2022-12-11T00:50:55;-0.30;93.00
55121;DHT22;41019;48.512;9.036;2022-12-11T00:53:21;-0.30;93.10
55121;DHT22;41019;48.512;9.036;2022-12-11T00:55:47;-0.40;93.20
55121;DHT22;41019;48.512;9.036;2022-12-11T00:58:14;-0.40;92.90
55121;DHT22;41019;48.512;9.036;2022-12-11T01:00:40;-0.50;93.10
55121;DHT22;41019;48.512;9.036;2022-12-11T01:03:07;-0.50;93.30
55121;DHT22;41019;48.512;9.036;2022-12-11T01:05:33;-0.50;92.80
55121;DHT22;41019;48.512;9.036;2022-12-11T01:08:00;-0.50;93.20
55121;DHT22;41019;48.512;9.036;2022-12-11T01:10:26;-0.60;92.90
55121;DHT22;41019;48.512;9.036;2022-12-11T01:13:01;-0.60;93.30
55121;DHT22;41019;48.512;9.036;2022-12-11T01:15:48;-0.60;93.60
55121;DHT22;41019;48.512;9.036;2022-12-11T01:18:14;-0.70;93.50
55121;DHT22;41019;48.512;9.036;2022-12-11T01:20:41;-0.70;93.30
55121;DHT22;41019;48.512;9.036;2022-12-11T01:23:10;-0.70;92.80
55121;DHT22;41019;48.512;9.036;2022-12-11T01:25:38;-0.80;92.90
55121;DHT22;41019;48.512;9.036;2022-12-11T01:28:05;-0.80;93.60
55121;DHT22;41019;48.512;9.036;2022-12-11T01:30:32;-0.80;93.70
55121;DHT22;41019;48.512;9.036;2022-12-11T01:32:59;-0.80;93.90
55121;DHT22;41019;48.512;9.036;2022-12-11T01:35:25;-0.80;94.10
55121;DHT22;41019;48.512;9.036;2022-12-11T01:37:51;-0.80;94.30
55121;DHT22;41019;48.512;9.036;2022-12-11T01:40:18;-0.80;94.20
55121;DHT22;41019;48.512;9.036;2022-12-11T01:42:45;-0.70;94.40
55121;DHT22;41019;48.512;9.036;2022-12-11T01:45:38;-0.70;94.90
55121;DHT22;41019;48.512;9.036;2022-12-11T01:48:12;-0.70;95.00
55121;DHT22;41019;48.512;9.036;2022-12-11T01:50:53;-0.70;95.00
55121;DHT22;41019;48.512;9.036;2022-12-11T01:53:31;-0.60;94.90
55121;DHT22;41019;48.512;9.036;2022-12-11T01:55:58;-0.60;94.60
55121;DHT22;41019;48.512;9.036;2022-12-11T01:58:32;-0.50;94.70
55121;DHT22;41019;48.512;9.036;2022-12-11T02:01:00;-0.50;95.00
55121;DHT22;41019;48.512;9.036;2022-12-11T02:03:27;-0.50;95.30
55121;DHT22;41019;48.512;9.036;2022-12-11T02:05:53;-0.50;95.10
55121;DHT22;41019;48.512;9.036;2022-12-11T02:08:20;-0.50;94.70
55121;DHT22;41019;48.512;9.036;2022-12-11T02:13:56;-0.50;94.40
55121;DHT22;41019;48.512;9.036;2022-12-11T02:16:38;-0.50;94.50
55121;DHT22;41019;48.512;9.036;2022-12-11T02:22:07;-0.50;94.70
55121;DHT22;41019;48.512;9.036;2022-12-11T02:24:52;-0.50;94.60
55121;DHT22;41019;48.512;9.036;2022-12-11T02:30:08;-0.50;94.70
55121;DHT22;41019;48.512;9.036;2022-12-11T02:35:25;-0.50;94.40
55121;DHT22;41019;48.512;9.036;2022-12-11T02:38:02;-0.60;94.50
55121;DHT22;41019;48.512;9.036;2022-12-11T02:40:31;-0.50;94.30
55121;DHT22;41019;48.512;9.036;2022-12-11T02:43:03;-0.60;94.30
55121;DHT22;41019;48.512;9.036;2022-12-11T02:45:32;-0.60;94.60
55121;DHT22;41019;48.512;9.036;2022-12-11T02:48:03;-0.60;94.50
55121;DHT22;41019;48.512;9.036;2022-12-11T02:50:32;-0.60;94.60
55121;DHT22;41019;48.512;9.036;2022-12-11T02:53:03;-0.60;94.60
55121;DHT22;41019;48.512;9.036;2022-12-11T02:55:33;-0.60;94.50
55121;DHT22;41019;48.512;9.036;2022-12-11T02:58:13;-0.60;94.80
55121;DHT22;41019;48.512;9.036;2022-12-11T03:00:43;-0.60;94.80
55121;DHT22;41019;48.512;9.036;2022-12-11T03:03:10;-0.60;95.00
55121;DHT22;41019;48.512;9.036;2022-12-11T03:05:40;-0.60;95.10
55121;DHT22;41019;48.512;9.036;2022-12-11T03:08:06;-0.60;95.20
55121;DHT22;41019;48.512;9.036;2022-12-11T03:10:32;-0.60;95.40
55121;DHT22;41019;48.512;9.036;2022-12-11T03:12:59;-0.50;95.40
55121;DHT22;41019;48.512;9.036;2022-12-11T03:15:38;-0.50;95.20
55121;DHT22;41019;48.512;9.036;2022-12-11T03:21:07;-0.50;95.30
55121;DHT22;41019;48.512;9.036;2022-12-11T03:26:22;-0.50;95.40
55121;DHT22;41019;48.512;9.036;2022-12-11T03:29:02;-0.50;95.50
55121;DHT22;41019;48.512;9.036;2022-12-11T03:31:44;-0.50;95.50
55121;DHT22;41019;48.512;9.036;2022-12-11T03:34:17;-0.50;95.20
55121;DHT22;41019;48.512;9.036;2022-12-11T03:36:47;-0.50;95.10
55121;DHT22;41019;48.512;9.036;2022-12-11T03:39:29;-0.60;94.80
55121;DHT22;41019;48.512;9.036;2022-12-11T03:42:00;-0.60;94.30
55121;DHT22;41019;48.512;9.036;2022-12-11T03:44:30;-0.70;94.80
55121;DHT22;41019;48.512;9.036;2022-12-11T03:46:59;-0.70;94.60
55121;DHT22;41019;48.512;9.036;2022-12-11T03:49:31;-0.80;94.20
55121;DHT22;41019;48.512;9.036;2022-12-11T03:52:01;-0.90;94.00
55121;DHT22;41019;48.512;9.036;2022-12-11T03:54:29;-0.90;94.40
55121;DHT22;41019;48.512;9.036;2022-12-11T03:56:57;-1.00;94.30
55121;DHT22;41019;48.512;9.036;2022-12-11T03:59:25;-1.00;94.30
55121;DHT22;41019;48.512;9.036;2022-12-11T04:01:51;-1.10;94.00
55121;DHT22;41019;48.512;9.036;2022-12-11T04:04:17;-1.10;94.50
55121;DHT22;41019;48.512;9.036;2022-12-11T04:06:43;-1.20;94.60
55121;DHT22;41019;48.512;9.036;2022-12-11T04:09:09;-1.20;93.60
55121;DHT22;41019;48.512;9.036;2022-12-11T04:11:35;-1.30;94.00
55121;DHT22;41019;48.512;9.036;2022-12-11T04:14:08;-1.30;94.10
55121;DHT22;41019;48.512;9.036;2022-12-11T04:16:54;-1.30;93.90
55121;DHT22;41019;48.512;9.036;2022-12-11T04:19:22;-1.40;94.40
55121;DHT22;41019;48.512;9.036;2022-12-11T04:22:09;-1.40;94.40
55121;DHT22;41019;48.512;9.036;2022-12-11T04:24:54;-1.40;94.50
55121;DHT22;41019;48.512;9.036;2022-12-11T04:27:20;-1.50;94.20
55121;DHT22;41019;48.512;9.036;2022-12-11T04:30:11;-1.50;94.10
55121;DHT22;41019;48.512;9.036;2022-12-11T04:32:38;-1.50;94.10
55121;DHT22;41019;48.512;9.036;2022-12-11T04:35:06;-1.60;94.10
55121;DHT22;41019;48.512;9.036;2022-12-11T04:37:32;-1.60;94.20
55121;DHT22;41019;48.512;9.036;2022-12-11T04:39:58;-1.60;94.30
55121;DHT22;41019;48.512;9.036;2022-12-11T04:42:24;-1.70;94.60
55121;DHT22;41019;48.512;9.036;2022-12-11T04:44:50;-1.70;94.70
55121;DHT22;41019;48.512;9.036;2022-12-11T04:47:16;-1.70;94.50
55121;DHT22;41019;48.512;9.036;2022-12-11T04:49:42;-1.70;94.60
55121;DHT22;41019;48.512;9.036;2022-12-11T04:52:08;-1.70;94.90
55121;DHT22;41019;48.512;9.036;2022-12-11T04:54:34;-1.70;95.10
55121;DHT22;41019;48.512;9.036;2022-12-11T04:57:00;-1.70;94.80
55121;DHT22;41019;48.512;9.036;2022-12-11T04:59:26;-1.70;94.90
55121;DHT22;41019;48.512;9.036;2022-12-11T05:01:52;-1.70;95.30
55121;DHT22;41019;48.512;9.036;2022-12-11T05:04:19;-1.60;95.60
55121;DHT22;41019;48.512;9.036;2022-12-11T05:06:47;-1.60;95.50
55121;DHT22;41019;48.512;9.036;2022-12-11T05:09:13;-1.60;95.60
55121;DHT22;41019;48.512;9.036;2022-12-11T05:11:39;-1.60;95.60
55121;DHT22;41019;48.512;9.036;2022-12-11T05:14:05;-1.60;95.50
55121;DHT22;41019;48.512;9.036;2022-12-11T05:16:30;-1.50;95.70
55121;DHT22;41019;48.512;9.036;2022-12-11T05:18:56;-1.60;95.60
55121;DHT22;41019;48.512;9.036;2022-12-11T05:21:22;-1.50;95.40
55121;DHT22;41019;48.512;9.036;2022-12-11T05:23:48;-1.50;95.50
55121;DHT22;41019;48.512;9.036;2022-12-11T05:26:16;-1.50;95.30
55121;DHT22;41019;48.512;9.036;2022-12-11T05:28:44;-1.50;95.30
55121;DHT22;41019;48.512;9.036;2022-12-11T05:31:19;-1.50;95.30
55121;DHT22;41019;48.512;9.036;2022-12-11T05:33:46;-1.50;95.20
55121;DHT22;41019;48.512;9.036;2022-12-11T05:36:17;-1.40;95.30
55121;DHT22;41019;48.512;9.036;2022-12-11T05:38:43;-1.40;95.40
55121;DHT22;41019;48.512;9.036;2022-12-11T05:41:13;-1.40;95.10
55121;DHT22;41019;48.512;9.036;2022-12-11T05:43:39;-1.40;95.10
55121;DHT22;41019;48.512;9.036;2022-12-11T05:46:10;-1.40;95.00
55121;DHT22;41019;48.512;9.036;2022-12-11T05:48:37;-1.40;95.30
55121;DHT22;41019;48.512;9.036;2022-12-11T05:51:04;-1.30;94.80
55121;DHT22;41019;48.512;9.036;2022-12-11T05:53:31;-1.30;94.70
55121;DHT22;41019;48.512;9.036;2022-12-11T05:56:02;-1.40;94.70
55121;DHT22;41019;48.512;9.036;2022-12-11T05:58:28;-1.40;95.00
55121;DHT22;41019;48.512;9.036;2022-12-11T06:00:54;-1.40;95.20
55121;DHT22;41019;48.512;9.036;2022-12-11T06:03:20;-1.40;95.30
55121;DHT22;41019;48.512;9.036;2022-12-11T06:05:46;-1.40;95.00
55121;DHT22;41019;48.512;9.036;2022-12-11T06:08:11;-1.40;95.10
55121;DHT22;41019;48.512;9.036;2022-12-11T06:10:39;-1.40;94.70
55121;DHT22;41019;48.512;9.036;2022-12-11T06:13:09;-1.50;94.40
55121;DHT22;41019;48.512;9.036;2022-12-11T06:15:35;-1.50;94.30
55121;DHT22;41019;48.512;9.036;2022-12-11T06:18:00;-1.60;94.10
55121;DHT22;41019;48.512;9.036;2022-12-11T06:20:30;-1.60;94.20
55121;DHT22;41019;48.512;9.036;2022-12-11T06:22:56;-1.60;94.50
55121;DHT22;41019;48.512;9.036;2022-12-11T06:25:22;-1.70;94.30
55121;DHT22;41019;48.512;9.036;2022-12-11T06:27:49;-1.70;94.10
55121;DHT22;41019;48.512;9.036;2022-12-11T06:30:15;-1.80;93.90
55121;DHT22;41019;48.512;9.036;2022-12-11T06:32:41;-1.80;93.60
55121;DHT22;41019;48.512;9.036;2022-12-11T06:35:08;-1.90;94.00
55121;DHT22;41019;48.512;9.036;2022-12-11T06:37:36;-1.90;93.60
55121;DHT22;41019;48.512;9.036;2022-12-11T06:40:03;-2.00;93.80
55121;DHT22;41019;48.512;9.036;2022-12-11T06:42:30;-2.00;93.90
55121;DHT22;41019;48.512;9.036;2022-12-11T06:44:57;-2.00;94.20
55121;DHT22;41019;48.512;9.036;2022-12-11T06:47:25;-2.10;94.00
55121;DHT22;41019;48.512;9.036;2022-12-11T06:49:52;-2.10;94.10
55121;DHT22;41019;48.512;9.036;2022-12-11T06:52:19;-2.10;94.30
55121;DHT22;41019;48.512;9.036;2022-12-11T06:54:45;-2.10;93.70
55121;DHT22;41019;48.512;9.036;2022-12-11T06:57:11;-2.20;93.90
55121;DHT22;41019;48.512;9.036;2022-12-11T06:59:37;-2.20;94.20
55121;DHT22;41019;48.512;9.036;2022-12-11T07:02:04;-2.20;93.90
55121;DHT22;41019;48.512;9.036;2022-12-11T07:04:30;-2.30;93.60
55121;DHT22;41019;48.512;9.036;2022-12-11T07:06:56;-2.30;93.80
55121;DHT22;41019;48.512;9.036;2022-12-11T07:09:23;-2.30;93.80
55121;DHT22;41019;48.512;9.036;2022-12-11T07:11:51;-2.30;94.10
55121;DHT22;41019;48.512;9.036;2022-12-11T07:14:18;-2.40;93.80
55121;DHT22;41019;48.512;9.036;2022-12-11T07:16:44;-2.40;93.70
55121;DHT22;41019;48.512;9.036;2022-12-11T07:19:10;-2.40;93.30
55121;DHT22;41019;48.512;9.036;2022-12-11T07:21:35;-2.50;93.40
55121;DHT22;41019;48.512;9.036;2022-12-11T07:24:02;-2.50;93.60
55121;DHT22;41019;48.512;9.036;2022-12-11T07:26:28;-2.50;93.60
55121;DHT22;41019;48.512;9.036;2022-12-11T07:28:58;-2.50;93.90
55121;DHT22;41019;48.512;9.036;2022-12-11T07:31:26;-2.60;94.00
55121;DHT22;41019;48.512;9.036;2022-12-11T07:36:21;-2.50;94.10
55121;DHT22;41019;48.512;9.036;2022-12-11T07:38:46;-2.50;94.00
55121;DHT22;41019;48.512;9.036;2022-12-11T07:41:14;-2.50;94.00
55121;DHT22;41019;48.512;9.036;2022-12-11T07:43:41;-2.50;93.80
55121;DHT22;41019;48.512;9.036;2022-12-11T07:46:14;-2.40;94.00
55121;DHT22;41019;48.512;9.036;2022-12-11T07:48:41;-2.40;94.40
55121;DHT22;41019;48.512;9.036;2022-12-11T07:51:14;-2.40;94.60
55121;DHT22;41019;48.512;9.036;2022-12-11T07:53:43;-2.30;94.60
55121;DHT22;41019;48.512;9.036;2022-12-11T07:56:10;-2.30;94.20
55121;DHT22;41019;48.512;9.036;2022-12-11T07:58:36;-2.30;93.90
55121;DHT22;41019;48.512;9.036;2022-12-11T08:01:04;-2.30;93.60
55121;DHT22;41019;48.512;9.036;2022-12-11T08:03:31;-2.30;93.70
55121;DHT22;41019;48.512;9.036;2022-12-11T08:05:56;-2.20;93.90
55121;DHT22;41019;48.512;9.036;2022-12-11T08:08:22;-2.20;94.50
55121;DHT22;41019;48.512;9.036;2022-12-11T08:10:48;-2.10;94.70
55121;DHT22;41019;48.512;9.036;2022-12-11T08:13:14;-2.00;94.60
55121;DHT22;41019;48.512;9.036;2022-12-11T08:15:41;-1.90;94.60
55121;DHT22;41019;48.512;9.036;2022-12-11T08:18:07;-1.90;94.60
55121;DHT22;41019;48.512;9.036;2022-12-11T08:20:33;-1.80;94.30
55121;DHT22;41019;48.512;9.036;2022-12-11T08:22:59;-1.70;94.40
55121;DHT22;41019;48.512;9.036;2022-12-11T08:25:25;-1.70;94.20
55121;DHT22;41019;48.512;9.036;2022-12-11T08:27:50;-1.60;94.10
55121;DHT22;41019;48.512;9.036;2022-12-11T08:30:16;-1.50;93.70
55121;DHT22;41019;48.512;9.036;2022-12-11T08:32:42;-1.40;94.00
55121;DHT22;41019;48.512;9.036;2022-12-11T08:35:08;-1.30;93.70
55121;DHT22;41019;48.512;9.036;2022-12-11T08:37:34;-1.20;93.70
55121;DHT22;41019;48.512;9.036;2022-12-11T08:40:00;-1.10;93.40
55121;DHT22;41019;48.512;9.036;2022-12-11T08:42:26;-1.00;93.20
55121;DHT22;41019;48.512;9.036;2022-12-11T08:44:52;-0.90;93.30
55121;DHT22;41019;48.512;9.036;2022-12-11T08:47:19;-0.80;93.30
55121;DHT22;41019;48.512;9.036;2022-12-11T08:49:45;-0.70;93.10
55121;DHT22;41019;48.512;9.036;2022-12-11T08:52:11;-0.60;93.00
55121;DHT22;41019;48.512;9.036;2022-12-11T08:54:37;-0.50;92.70
55121;DHT22;41019;48.512;9.036;2022-12-11T08:57:03;-0.40;92.60
55121;DHT22;41019;48.512;9.036;2022-12-11T08:59:29;-0.20;92.40
55121;DHT22;41019;48.512;9.036;2022-12-11T09:01:55;0.10;92.10
55121;DHT22;41019;48.512;9.036;2022-12-11T09:04:22;0.40;91.30
55121;DHT22;41019;48.512;9.036;2022-12-11T09:06:48;0.60;90.40
55121;DHT22;41019;48.512;9.036;2022-12-11T09:09:14;0.80;90.20
55121;DHT22;41019;48.512;9.036;2022-12-11T09:11:41;1.00;89.60
55121;DHT22;41019;48.512;9.036;2022-12-11T09:14:07;1.00;89.00
55121;DHT22;41019;48.512;9.036;2022-12-11T09:16:34;1.00;87.50
55121;DHT22;41019;48.512;9.036;2022-12-11T09:19:03;1.00;88.60
55121;DHT22;41019;48.512;9.036;2022-12-11T09:21:29;1.00;89.20
55121;DHT22;41019;48.512;9.036;2022-12-11T09:23:58;0.90;88.60
55121;DHT22;41019;48.512;9.036;2022-12-11T09:26:26;0.80;89.50
55121;DHT22;41019;48.512;9.036;2022-12-11T09:28:53;0.80;90.00
55121;DHT22;41019;48.512;9.036;2022-12-11T09:31:22;0.80;90.20
55121;DHT22;41019;48.512;9.036;2022-12-11T09:33:50;0.80;90.00
55121;DHT22;41019;48.512;9.036;2022-12-11T09:36:18;0.80;90.20
55121;DHT22;41019;48.512;9.036;2022-12-11T09:38:44;0.80;89.90
55121;DHT22;41019;48.512;9.036;2022-12-11T09:41:24;0.70;89.80
55121;DHT22;41019;48.512;9.036;2022-12-11T09:44:16;0.70;90.00
55121;DHT22;41019;48.512;9.036;2022-12-11T09:46:45;0.70;89.50
55121;DHT22;41019;48.512;9.036;2022-12-11T09:49:31;0.70;90.30
55121;DHT22;41019;48.512;9.036;2022-12-11T09:52:21;0.70;90.30
55121;DHT22;41019;48.512;9.036;2022-12-11T09:55:05;0.70;90.70
55121;DHT22;41019;48.512;9.036;2022-12-11T09:58:05;0.70;91.00
55121;DHT22;41019;48.512;9.036;2022-12-11T10:01:05;0.70;90.20
55121;DHT22;41019;48.512;9.036;2022-12-11T10:03:44;0.80;90.10
55121;DHT22;41019;48.512;9.036;2022-12-11T10:06:47;0.80;90.20
55121;DHT22;41019;48.512;9.036;2022-12-11T10:09:35;0.80;88.70
55121;DHT22;41019;48.512;9.036;2022-12-11T10:12:13;0.80;88.10
55121;DHT22;41019;48.512;9.036;2022-12-11T10:17:40;0.90;87.70
55121;DHT22;41019;48.512;9.036;2022-12-11T10:22:43;0.90;88.50
55121;DHT22;41019;48.512;9.036;2022-12-11T10:25:20;0.90;89.50
55121;DHT22;41019;48.512;9.036;2022-12-11T10:27:46;0.90;87.10
55121;DHT22;41019;48.512;9.036;2022-12-11T10:30:16;1.00;88.90
55121;DHT22;41019;48.512;9.036;2022-12-11T10:35:33;1.00;89.50
55121;DHT22;41019;48.512;9.036;2022-12-11T10:38:12;1.00;90.00
55121;DHT22;41019;48.512;9.036;2022-12-11T10:40:44;1.00;90.30
55121;DHT22;41019;48.512;9.036;2022-12-11T10:43:10;1.00;90.10
55121;DHT22;41019;48.512;9.036;2022-12-11T10:45:36;1.00;89.90
55121;DHT22;41019;48.512;9.036;2022-12-11T10:48:09;1.00;89.50
55121;DHT22;41019;48.512;9.036;2022-12-11T10:50:36;1.00;90.00
55121;DHT22;41019;48.512;9.036;2022-12-11T10:53:02;1.10;90.30
55121;DHT22;41019;48.512;9.036;2022-12-11T10:55:44;1.10;90.00
55121;DHT22;41019;48.512;9.036;2022-12-11T10:58:20;1.10;90.30
55121;DHT22;41019;48.512;9.036;2022-12-11T11:01:08;1.20;90.30
55121;DHT22;41019;48.512;9.036;2022-12-11T11:03:50;1.20;90.10
55121;DHT22;41019;48.512;9.036;2022-12-11T11:06:20;1.20;90.30
55121;DHT22;41019;48.512;9.036;2022-12-11T11:08:49;1.30;90.30
55121;DHT22;41019;48.512;9.036;2022-12-11T11:11:48;1.30;90.00
55121;DHT22;41019;48.512;9.036;2022-12-11T11:14:19;1.40;90.50
55121;DHT22;41019;48.512;9.036;2022-12-11T11:16:48;1.40;90.20
55121;DHT22;41019;48.512;9.036;2022-12-11T11:19:21;1.50;90.10
55121;DHT22;41019;48.512;9.036;2022-12-11T11:21:52;1.60;88.80
55121;DHT22;41019;48.512;9.036;2022-12-11T11:24:27;1.60;88.80
55121;DHT22;41019;48.512;9.036;2022-12-11T11:26:55;1.70;88.60
55121;DHT22;41019;48.512;9.036;2022-12-11T11:29:28;1.80;87.90
55121;DHT22;41019;48.512;9.036;2022-12-11T11:31:55;1.80;88.50
55121;DHT22;41019;48.512;9.036;2022-12-11T11:34:21;1.80;87.30
55121;DHT22;41019;48.512;9.036;2022-12-11T11:36:58;1.90;88.10
55121;DHT22;41019;48.512;9.036;2022-12-11T11:39:38;1.90;88.20
55121;DHT22;41019;48.512;9.036;2022-12-11T11:42:09;2.00;86.80
55121;DHT22;41019;48.512;9.036;2022-12-11T11:44:47;2.10;87.10
55121;DHT22;41019;48.512;9.036;2022-12-11T11:47:29;2.10;87.10
55121;DHT22;41019;48.512;9.036;2022-12-11T11:50:15;2.20;87.60
55121;DHT22;41019;48.512;9.036;2022-12-11T11:53:16;2.20;86.90
55121;DHT22;41019;48.512;9.036;2022-12-11T11:56:04;2.20;86.60
55121;DHT22;41019;48.512;9.036;2022-12-11T12:01:15;2.20;87.30
55121;DHT22;41019;48.512;9.036;2022-12-11T12:03:43;2.30;86.70
55121;DHT22;41019;48.512;9.036;2022-12-11T12:14:29;2.40;86.70
55121;DHT22;41019;48.512;9.036;2022-12-11T12:20:07;2.40;86.80
55121;DHT22;41019;48.512;9.036;2022-12-11T12:23:05;2.50;87.40
55121;DHT22;41019;48.512;9.036;2022-12-11T12:25:48;2.50;86.90
55121;DHT22;41019;48.512;9.036;2022-12-11T12:44:51;2.60;85.50
55121;DHT22;41019;48.512;9.036;2022-12-11T12:47:19;2.60;84.70
55121;DHT22;41019;48.512;9.036;2022-12-11T12:49:48;2.60;84.60
55121;DHT22;41019;48.512;9.036;2022-12-11T12:52:30;2.60;85.30
55121;DHT22;41019;48.512;9.036;2022-12-11T12:55:02;2.60;85.30
55121;DHT22;41019;48.512;9.036;2022-12-11T12:57:49;2.60;85.90
55121;DHT22;41019;48.512;9.036;2022-12-11T13:00:31;2.60;84.70
55121;DHT22;41019;48.512;9.036;2022-12-11T13:03:02;2.50;84.50
55121;DHT22;41019;48.512;9.036;2022-12-11T13:05:42;2.50;85.00
55121;DHT22;41019;48.512;9.036;2022-12-11T13:08:10;2.50;86.20
55121;DHT22;41019;48.512;9.036;2022-12-11T13:10:40;2.50;85.70
55121;DHT22;41019;48.512;9.036;2022-12-11T13:13:31;2.50;84.40
55121;DHT22;41019;48.512;9.036;2022-12-11T13:16:23;2.50;85.40
55121;DHT22;41019;48.512;9.036;2022-12-11T13:18:50;2.50;84.80
55121;DHT22;41019;48.512;9.036;2022-12-11T13:21:34;2.50;84.50
55121;DHT22;41019;48.512;9.036;2022-12-11T13:24:16;2.50;84.30
55121;DHT22;41019;48.512;9.036;2022-12-11T13:26:49;2.50;85.10
55121;DHT22;41019;48.512;9.036;2022-12-11T13:29:38;2.50;84.70
55121;DHT22;41019;48.512;9.036;2022-12-11T13:32:19;2.60;84.40
55121;DHT22;41019;48.512;9.036;2022-12-11T13:34:58;2.60;84.50
55121;DHT22;41019;48.512;9.036;2022-12-11T13:37:43;2.60;84.90
55121;DHT22;41019;48.512;9.036;2022-12-11T13:40:23;2.70;85.10
55121;DHT22;41019;48.512;9.036;2022-12-11T13:42:55;2.70;84.30
55121;DHT22;41019;48.512;9.036;2022-12-11T13:45:30;2.70;83.90
55121;DHT22;41019;48.512;9.036;2022-12-11T13:47:58;2.70;84.30
55121;DHT22;41019;48.512;9.036;2022-12-11T13:50:31;2.70;83.30
55121;DHT22;41019;48.512;9.036;2022-12-11T13:53:00;2.70;83.60
55121;DHT22;41019;48.512;9.036;2022-12-11T13:55:29;2.70;82.90
55121;DHT22;41019;48.512;9.036;2022-12-11T13:57:55;2.70;83.60
55121;DHT22;41019;48.512;9.036;2022-12-11T14:00:25;2.70;83.60
55121;DHT22;41019;48.512;9.036;2022-12-11T14:02:55;2.70;83.50
55121;DHT22;41019;48.512;9.036;2022-12-11T14:05:22;2.70;84.40
55121;DHT22;41019;48.512;9.036;2022-12-11T14:07:52;2.70;84.10
55121;DHT22;41019;48.512;9.036;2022-12-11T14:10:26;2.60;83.10
55121;DHT22;41019;48.512;9.036;2022-12-11T14:15:25;2.60;83.10
55121;DHT22;41019;48.512;9.036;2022-12-11T14:17:52;2.60;82.30
55121;DHT22;41019;48.512;9.036;2022-12-11T14:20:23;2.60;82.40
55121;DHT22;41019;48.512;9.036;2022-12-11T14:22:50;2.60;82.80
55121;DHT22;41019;48.512;9.036;2022-12-11T14:27:52;2.50;83.60
55121;DHT22;41019;48.512;9.036;2022-12-11T14:30:24;2.50;83.40
55121;DHT22;41019;48.512;9.036;2022-12-11T14:32:55;2.40;83.00
55121;DHT22;41019;48.512;9.036;2022-12-11T14:35:33;2.40;82.60
55121;DHT22;41019;48.512;9.036;2022-12-11T14:38:06;2.30;82.70
55121;DHT22;41019;48.512;9.036;2022-12-11T14:40:40;2.30;82.30
55121;DHT22;41019;48.512;9.036;2022-12-11T14:43:55;2.30;82.90
55121;DHT22;41019;48.512;9.036;2022-12-11T14:46:08;2.30;83.40
55121;DHT22;41019;48.512;9.036;2022-12-11T14:48:47;2.30;83.40
55121;DHT22;41019;48.512;9.036;2022-12-11T14:51:18;2.20;83.90
55121;DHT22;41019;48.512;9.036;2022-12-11T14:53:47;2.20;85.00
55121;DHT22;41019;48.512;9.036;2022-12-11T14:56:20;2.20;85.40
55121;DHT22;41019;48.512;9.036;2022-12-11T14:59:18;2.10;85.10
55121;DHT22;41019;48.512;9.036;2022-12-11T15:02:00;2.10;86.70
55121;DHT22;41019;48.512;9.036;2022-12-11T15:04:32;2.00;86.00
55121;DHT22;41019;48.512;9.036;2022-12-11T15:06:58;2.00;86.70
55121;DHT22;41019;48.512;9.036;2022-12-11T15:09:37;2.00;87.20
55121;DHT22;41019;48.512;9.036;2022-12-11T15:12:18;2.00;88.60
55121;DHT22;41019;48.512;9.036;2022-12-11T15:14:57;2.00;89.50
55121;DHT22;41019;48.512;9.036;2022-12-11T15:17:26;2.00;90.00
55121;DHT22;41019;48.512;9.036;2022-12-11T15:19:59;2.00;90.00
55121;DHT22;41019;48.512;9.036;2022-12-11T15:22:30;1.90;89.80
55121;DHT22;41019;48.512;9.036;2022-12-11T15:24:57;1.90;90.20
55121;DHT22;41019;48.512;9.036;2022-12-11T15:27:35;1.90;89.80
55121;DHT22;41019;48.512;9.036;2022-12-11T15:35:34;1.80;90.00
55121;DHT22;41019;48.512;9.036;2022-12-11T15:38:00;1.70;89.50
55121;DHT22;41019;48.512;9.036;2022-12-11T15:40:27;1.70;90.20
55121;DHT22;41019;48.512;9.036;2022-12-11T15:42:54;1.70;89.10
55121;DHT22;41019;48.512;9.036;2022-12-11T15:45:24;1.60;89.00
55121;DHT22;41019;48.512;9.036;2022-12-11T15:47:51;1.60;88.80
55121;DHT22;41019;48.512;9.036;2022-12-11T15:50:21;1.50;89.30
55121;DHT22;41019;48.512;9.036;2022-12-11T15:52:49;1.50;89.10
55121;DHT22;41019;48.512;9.036;2022-12-11T15:55:16;1.50;88.30
55121;DHT22;41019;48.512;9.036;2022-12-11T16:00:18;1.40;89.10
55121;DHT22;41019;48.512;9.036;2022-12-11T16:02:45;1.40;88.60
55121;DHT22;41019;48.512;9.036;2022-12-11T16:05:12;1.40;88.50
55121;DHT22;41019;48.512;9.036;2022-12-11T16:07:38;1.30;88.50
55121;DHT22;41019;48.512;9.036;2022-12-11T16:10:06;1.30;89.10
55121;DHT22;41019;48.512;9.036;2022-12-11T16:12:32;1.30;89.40
55121;DHT22;41019;48.512;9.036;2022-12-11T16:14:58;1.30;90.10
55121;DHT22;41019;48.512;9.036;2022-12-11T16:17:24;1.30;90.30
55121;DHT22;41019;48.512;9.036;2022-12-11T16:19:53;1.30;90.70
55121;DHT22;41019;48.512;9.036;2022-12-11T16:22:18;1.30;90.80
55121;DHT22;41019;48.512;9.036;2022-12-11T16:24:44;1.30;91.10
55121;DHT22;41019;48.512;9.036;2022-12-11T16:27:10;1.30;91.30
55121;DHT22;41019;48.512;9.036;2022-12-11T16:29:38;1.30;91.40
55121;DHT22;41019;48.512;9.036;2022-12-11T16:32:05;1.30;91.40
55121;DHT22;41019;48.512;9.036;2022-12-11T16:34:34;1.30;91.50
55121;DHT22;41019;48.512;9.036;2022-12-11T16:37:01;1.30;91.40
55121;DHT22;41019;48.512;9.036;2022-12-11T16:39:27;1.30;91.50
55121;DHT22;41019;48.512;9.036;2022-12-11T16:41:53;1.30;91.70
55121;DHT22;41019;48.512;9.036;2022-12-11T16:44:20;1.20;91.70
55121;DHT22;41019;48.512;9.036;2022-12-11T16:46:46;1.30;92.00
55121;DHT22;41019;48.512;9.036;2022-12-11T16:49:12;1.30;92.00
55121;DHT22;41019;48.512;9.036;2022-12-11T16:51:39;1.30;91.80
55121;DHT22;41019;48.512;9.036;2022-12-11T16:54:05;1.30;91.90
55121;DHT22;41019;48.512;9.036;2022-12-11T16:56:31;1.30;91.90
55121;DHT22;41019;48.512;9.036;2022-12-11T16:58:57;1.30;92.00
55121;DHT22;41019;48.512;9.036;2022-12-11T17:01:25;1.30;92.10
55121;DHT22;41019;48.512;9.036;2022-12-11T17:03:51;1.30;92.10
55121;DHT22;41019;48.512;9.036;2022-12-11T17:06:17;1.30;91.70
55121;DHT22;41019;48.512;9.036;2022-12-11T17:08:44;1.30;91.30
55121;DHT22;41019;48.512;9.036;2022-12-11T17:11:13;1.20;91.30